Time;durP1;ratioP1;P1;durP2;ratioP2;P2;SDS_P1;SDS_P2;PMS_P1;PMS_P2;Temp;Humidity;BMP_temperature;BMP_pressure;BME280_temperature;BME280_humidity;BME280_pressure;Samples;Min_cycle;Max_cycle;Signal;HPM_P1;HPM_P2
2023/06/19 00:01:58;;;;;;;4.50;2.72;;;;;;;30.01;34.49;100610.66;4937814;29;20064;-62
2023/06/19 00:04:23;;;;;;;3.30;2.75;;;;;;;29.98;34.77;100607.59;4937787;29;20032;-62
2023/06/19 00:06:48;;;;;;;4.47;2.67;;;;;;;29.95;35.31;100616.41;4937664;29;20051;-62
2023/06/19 00:09:14;;;;;;;3.55;2.60;;;;;;;29.90;35.29;100606.13;4937769;29;20036;-62
2023/06/19 00:11:40;;;;;;;4.60;2.30;;;;;;;29.83;35.00;100607.44;4937469;28;20403;-62
2023/06/19 00:14:05;;;;;;;3.83;2.40;;;;;;;29.74;35.03;100604.28;4937370;29;20495;-62
2023/06/19 00:16:31;;;;;;;4.13;2.83;;;;;;;29.75;35.57;100613.41;4937687;28;20095;-62
2023/06/19 00:18:56;;;;;;;4.60;2.60;;;;;;;29.72;35.36;100619.44;4937601;29;20087;-62
2023/06/19 00:21:25;;;;;;;3.20;1.98;;;;;;;29.69;35.54;100628.25;4934355;28;20456;-62
2023/06/19 00:23:52;;;;;;;5.22;3.55;;;;;;;29.66;35.63;100629.59;4937096;29;20059;-61
2023/06/19 00:26:17;;;;;;;5.35;2.80;;;;;;;29.62;35.99;100627.63;4954768;28;20032;-62
2023/06/19 00:28:45;;;;;;;3.75;2.95;;;;;;;29.57;35.71;100635.84;4937432;28;20032;-62
2023/06/19 00:31:13;;;;;;;5.07;2.60;;;;;;;29.52;36.09;100639.38;4937323;29;20457;-62
2023/06/19 00:33:38;;;;;;;4.20;2.63;;;;;;;29.47;35.72;100649.53;4938545;29;20039;-62
2023/06/19 00:36:08;;;;;;;2.83;2.22;;;;;;;29.41;35.44;100649.47;4937430;29;20529;-62
2023/06/19 00:38:34;;;;;;;3.92;2.83;;;;;;;29.38;36.22;100655.50;4936766;28;20404;-62
2023/06/19 00:40:59;;;;;;;6.03;3.55;;;;;;;29.38;36.06;100649.97;4938546;28;20024;-63
2023/06/19 00:43:25;;;;;;;3.60;2.38;;;;;;;29.39;36.41;100646.16;4938230;28;20028;-62
2023/06/19 00:45:50;;;;;;;4.03;2.25;;;;;;;29.43;36.01;100663.00;4938077;29;20028;-63
2023/06/19 00:48:15;;;;;;;4.05;2.35;;;;;;;29.45;36.03;100664.41;4936938;28;20091;-62
2023/06/19 00:50:41;;;;;;;6.50;2.78;;;;;;;29.45;35.80;100661.66;4936566;28;20122;-62
2023/06/19 00:53:07;;;;;;;5.03;2.40;;;;;;;29.47;35.65;100675.22;4938224;28;20024;-62
2023/06/19 00:55:33;;;;;;;5.72;2.60;;;;;;;29.47;36.59;100669.69;4937157;28;20016;-62
2023/06/19 00:58:00;;;;;;;2.92;2.40;;;;;;;29.45;36.21;100667.19;4936831;28;20023;-62
2023/06/19 01:00:25;;;;;;;3.60;2.40;;;;;;;29.42;36.23;100656.69;4952720;28;20120;-62
2023/06/19 01:02:51;;;;;;;4.07;2.42;;;;;;;29.45;36.62;100667.19;4936951;28;20102;-62
2023/06/19 01:05:17;;;;;;;6.22;2.80;;;;;;;29.45;36.69;100663.59;4936921;28;20020;-62
2023/06/19 01:08:05;;;;;;;3.35;2.47;;;;;;;29.44;37.06;100668.28;4936712;28;20475;-62
2023/06/19 01:10:43;;;;;;;3.40;2.60;;;;;;;29.43;36.88;100674.06;4936209;29;20400;-62
2023/06/19 01:13:13;;;;;;;3.88;2.55;;;;;;;29.41;36.68;100667.97;4936533;29;20035;-62
2023/06/19 01:15:39;;;;;;;4.20;2.97;;;;;;;29.39;36.76;100671.00;4937467;29;20121;-62
2023/06/19 01:18:04;;;;;;;4.35;2.70;;;;;;;29.35;36.87;100678.09;4936704;29;20066;-62
2023/06/19 01:20:30;;;;;;;4.63;2.78;;;;;;;29.30;36.59;100678.03;4936597;29;20456;-62
2023/06/19 01:22:56;;;;;;;7.13;3.05;;;;;;;29.26;36.31;100685.16;4937715;28;20043;-62
2023/06/19 01:25:23;;;;;;;5.95;3.03;;;;;;;29.22;37.23;100680.41;4936499;28;20032;-62
2023/06/19 01:27:49;;;;;;;3.80;2.53;;;;;;;29.19;36.51;100687.25;4937555;29;20055;-62
2023/06/19 01:30:14;;;;;;;7.30;2.55;;;;;;;29.15;37.24;100677.78;4937588;29;20452;-62
2023/06/19 01:32:48;;;;;;;5.28;3.13;;;;;;;29.13;37.41;100677.22;4936333;29;20118;-62
2023/06/19 01:35:16;;;;;;;4.00;2.53;;;;;;;29.09;37.20;100684.31;4936446;29;20032;-63
2023/06/19 01:37:41;;;;;;;7.50;2.25;;;;;;;29.09;36.53;100689.84;4952005;28;20499;-63
2023/06/19 01:40:09;;;;;;;3.55;2.25;;;;;;;29.07;37.71;100686.50;4936163;29;20132;-62
2023/06/19 01:42:35;;;;;;;2.95;2.28;;;;;;;29.05;37.30;100699.72;4917013;29;20084;-62
2023/06/19 01:45:02;;;;;;;3.20;2.42;;;;;;;28.99;37.48;100692.47;4942875;29;20164;-62
2023/06/19 01:47:28;;;;;;;2.17;1.67;;;;;;;28.96;37.26;100694.88;4932827;29;20036;-63
2023/06/19 01:49:54;;;;;;;3.42;2.45;;;;;;;28.91;37.01;100703.94;4911252;29;20503;-62
2023/06/19 01:52:19;;;;;;;3.00;1.90;;;;;;;28.84;37.51;100708.75;4951577;28;20036;-62
2023/06/19 01:54:44;;;;;;;3.05;2.03;;;;;;;28.81;37.34;100709.28;4920005;29;20039;-62
2023/06/19 01:57:10;;;;;;;3.67;1.88;;;;;;;28.75;38.21;100718.56;4935624;28;20511;-61
2023/06/19 01:59:36;;;;;;;2.83;1.95;;;;;;;28.71;37.64;100725.66;4935695;29;20043;-62
2023/06/19 02:02:03;;;;;;;2.88;2.10;;;;;;;28.66;38.25;100722.81;4936898;29;20054;-62
2023/06/19 02:04:29;;;;;;;3.65;1.60;;;;;;;28.63;38.70;100734.34;4936901;29;20036;-62
2023/06/19 02:06:55;;;;;;;2.28;1.80;;;;;;;28.63;38.19;100739.88;4942945;28;20071;-62
2023/06/19 02:09:20;;;;;;;3.28;2.42;;;;;;;28.54;38.39;100730.28;4956252;28;20031;-63
2023/06/19 02:11:45;;;;;;;2.67;1.80;;;;;;;28.53;38.42;100737.72;4956225;28;20118;-61
2023/06/19 02:14:11;;;;;;;3.90;2.08;;;;;;;28.51;38.81;100741.81;4938327;29;20079;-62
2023/06/19 02:16:36;;;;;;;2.90;2.15;;;;;;;28.50;39.31;100746.53;4954451;29;20134;-62
2023/06/19 02:19:02;;;;;;;4.78;2.08;;;;;;;28.47;38.52;100747.00;4938468;29;20380;-62
2023/06/19 02:21:28;;;;;;;2.85;1.92;;;;;;;28.43;39.17;100750.50;4954771;28;20036;-62
2023/06/19 02:23:54;;;;;;;3.03;2.03;;;;;;;28.36;38.99;100766.38;4955701;28;20038;-63
2023/06/19 02:26:19;;;;;;;2.47;1.73;;;;;;;28.30;39.43;100760.75;4954526;28;20043;-62
2023/06/19 02:28:44;;;;;;;3.55;2.15;;;;;;;28.29;38.93;100761.84;4938191;29;20126;-62
2023/06/19 02:31:10;;;;;;;3.13;1.88;;;;;;;28.29;38.58;100761.84;4955419;28;20553;-62
2023/06/19 02:33:35;;;;;;;4.07;1.65;;;;;;;28.26;39.56;100778.84;4954201;29;20035;-61
2023/06/19 02:36:01;;;;;;;3.10;2.00;;;;;;;28.20;40.01;100768.81;4970316;28;20043;-61
2023/06/19 02:38:29;;;;;;;3.00;2.10;;;;;;;28.23;39.46;100765.56;4954152;29;20033;-62
2023/06/19 02:40:57;;;;;;;4.55;1.80;;;;;;;28.20;39.53;100773.50;4954222;29;20028;-61
2023/06/19 02:43:22;;;;;;;6.90;2.30;;;;;;;28.12;39.68;100777.47;4938232;29;20478;-62
2023/06/19 02:45:48;;;;;;;2.00;1.70;;;;;;;28.11;39.55;100770.28;4955312;28;20039;-62
2023/06/19 02:48:13;;;;;;;2.90;2.00;;;;;;;28.12;40.38;100783.00;4954005;29;20581;-62
2023/06/19 02:50:38;;;;;;;3.00;1.92;;;;;;;28.13;40.13;100784.69;4955149;28;20059;-62
2023/06/19 02:53:04;;;;;;;2.80;1.88;;;;;;;28.15;40.04;100782.50;4954117;29;20042;-62
2023/06/19 02:55:29;;;;;;;2.92;1.88;;;;;;;28.16;40.02;100784.19;4955373;28;20038;-62
2023/06/19 02:57:54;;;;;;;5.00;1.90;;;;;;;28.14;40.01;100783.56;4955074;28;20565;-62
2023/06/19 03:00:20;;;;;;;2.65;1.67;;;;;;;28.07;39.85;100773.78;4953725;29;20402;-63
2023/06/19 03:02:48;;;;;;;4.25;1.70;;;;;;;28.06;39.94;100777.63;4953812;29;20036;-62
2023/06/19 03:05:15;;;;;;;2.88;1.90;;;;;;;28.01;40.32;100775.56;4954168;29;20035;-62
2023/06/19 03:07:41;;;;;;;3.13;2.00;;;;;;;27.96;39.80;100786.50;4953944;29;20380;-63
2023/06/19 03:10:07;;;;;;;5.55;2.30;;;;;;;27.94;40.74;100785.06;4953749;28;20031;-63
2023/06/19 03:12:32;;;;;;;3.97;2.08;;;;;;;27.85;40.83;100781.84;4954787;28;20114;-62
2023/06/19 03:14:58;;;;;;;4.80;1.92;;;;;;;27.86;39.94;100786.28;4954289;28;20047;-63
2023/06/19 03:17:23;;;;;;;2.17;1.45;;;;;;;27.83;41.21;100794.19;4954051;29;20031;-63
2023/06/19 03:19:49;;;;;;;2.53;1.90;;;;;;;27.82;40.93;100798.03;4954620;28;20054;-63
2023/06/19 03:22:14;;;;;;;2.47;1.67;;;;;;;27.74;40.80;100796.50;4954669;28;20039;-63
2023/06/19 03:24:39;;;;;;;2.75;1.70;;;;;;;27.69;41.02;100799.13;4953228;29;20034;-62
2023/06/19 03:27:05;;;;;;;2.83;1.70;;;;;;;27.70;40.63;100811.81;4953431;29;20114;-63
2023/06/19 03:29:30;;;;;;;2.60;1.38;;;;;;;27.71;40.58;100819.00;4954309;28;20454;-62
2023/06/19 03:31:56;;;;;;;1.65;1.33;;;;;;;27.71;41.25;100825.34;4954402;28;20058;-63
2023/06/19 03:34:21;;;;;;;2.42;1.48;;;;;;;27.71;41.17;100819.84;4959556;28;20102;-62
2023/06/19 03:36:46;;;;;;;2.55;1.55;;;;;;;27.70;40.81;100822.81;4959691;28;20387;-63
2023/06/19 03:39:12;;;;;;;3.33;1.98;;;;;;;27.70;40.90;100820.91;4959805;28;20038;-63
2023/06/19 03:41:37;;;;;;;3.10;1.67;;;;;;;27.68;41.46;100830.50;4959550;29;20046;-63
2023/06/19 03:44:02;;;;;;;1.85;1.55;;;;;;;27.65;41.62;100826.31;4960874;28;20180;-62
2023/06/19 03:46:28;;;;;;;12.20;1.45;;;;;;;27.65;41.60;100826.31;4975903;28;20046;-63
2023/06/19 03:48:53;;;;;;;2.33;2.00;;;;;;;27.61;41.28;100835.28;4961192;28;20114;-63
2023/06/19 03:51:19;;;;;;;7.35;1.95;;;;;;;27.55;41.05;100847.25;4960864;28;20032;-63
2023/06/19 03:53:44;;;;;;;2.05;1.77;;;;;;;27.46;41.33;100838.53;4961418;28;20031;-63
2023/06/19 03:56:10;;;;;;;2.65;1.80;;;;;;;27.47;42.38;100839.38;4961810;28;20494;-63
2023/06/19 03:58:35;;;;;;;8.45;1.95;;;;;;;27.49;41.85;100859.22;4960889;28;20035;-62
2023/06/19 04:01:01;;;;;;;2.65;2.00;;;;;;;27.45;41.87;100858.00;4975545;28;20031;-62
2023/06/19 04:03:26;;;;;;;4.30;1.90;;;;;;;27.45;42.18;100858.00;4960673;28;20038;-62
2023/06/19 04:05:51;;;;;;;2.83;1.70;;;;;;;27.45;41.80;100858.00;4959636;28;20037;-61
2023/06/19 04:08:17;;;;;;;4.75;2.15;;;;;;;27.49;41.99;100861.97;4960869;28;20518;-62
2023/06/19 04:10:42;;;;;;;2.25;1.85;;;;;;;27.52;42.20;100853.25;4943398;29;20058;-62
2023/06/19 04:13:08;;;;;;;2.50;1.40;;;;;;;27.55;42.79;100852.78;4959326;29;20102;-61
2023/06/19 04:15:35;;;;;;;5.45;1.73;;;;;;;27.61;42.31;100862.81;4959253;28;20528;-62
2023/06/19 04:18:00;;;;;;;2.20;1.63;;;;;;;27.62;42.00;100859.81;4959463;29;20035;-64
2023/06/19 04:20:26;;;;;;;4.07;1.80;;;;;;;27.64;42.59;100867.81;4943451;29;20039;-63
2023/06/19 04:22:52;;;;;;;2.67;1.92;;;;;;;27.64;42.00;100873.31;4959429;29;20032;-62
2023/06/19 04:25:18;;;;;;;4.57;2.35;;;;;;;27.63;41.96;100864.25;4959288;28;20039;-62
2023/06/19 04:27:44;;;;;;;3.47;2.10;;;;;;;27.63;42.24;100866.16;4960638;28;20550;-62
2023/06/19 04:30:11;;;;;;;2.47;1.73;;;;;;;27.65;42.50;100872.25;4960744;28;20031;-62
2023/06/19 04:32:40;;;;;;;2.30;1.20;;;;;;;27.66;41.88;100883.06;4959446;29;20032;-62
2023/06/19 04:35:09;;;;;;;3.83;2.03;;;;;;;27.66;42.15;100876.69;4960723;28;20569;-62
2023/06/19 04:37:35;;;;;;;2.67;1.55;;;;;;;27.69;42.34;100890.00;4959212;29;20166;-62
2023/06/19 04:40:00;;;;;;;2.08;1.52;;;;;;;27.67;42.55;100887.47;4960553;28;20119;-62
2023/06/19 04:42:26;;;;;;;1.58;1.48;;;;;;;27.63;42.96;100882.69;4959247;29;20054;-62
2023/06/19 04:44:52;;;;;;;4.00;1.90;;;;;;;27.61;42.38;100884.84;4956659;28;20035;-62
2023/06/19 04:47:19;;;;;;;2.40;1.40;;;;;;;27.63;43.00;100890.94;4956327;29;20054;-62
2023/06/19 04:49:44;;;;;;;2.17;1.58;;;;;;;27.63;42.21;100882.69;4956637;29;20074;-62
2023/06/19 04:52:11;;;;;;;2.03;1.70;;;;;;;27.63;42.93;100888.19;4956204;29;20508;-62
2023/06/19 04:54:36;;;;;;;3.50;1.98;;;;;;;27.62;42.81;100889.25;4957299;28;20042;-62
2023/06/19 04:57:02;;;;;;;6.30;1.95;;;;;;;27.61;42.83;100887.59;4956001;29;20402;-61
2023/06/19 04:59:27;;;;;;;4.45;2.00;;;;;;;27.57;43.13;100894.66;4957238;28;20122;-62
2023/06/19 05:01:56;;;;;;;2.97;1.52;;;;;;;27.60;43.35;100892.25;4957426;28;20398;-62
2023/06/19 05:04:24;;;;;;;2.05;1.20;;;;;;;27.60;43.76;100896.94;4955988;28;20046;-63
2023/06/19 05:06:50;;;;;;;3.10;1.50;;;;;;;27.60;43.22;100894.19;4955841;28;20031;-62
2023/06/19 05:09:16;;;;;;;2.10;1.42;;;;;;;27.57;43.16;100901.00;4956987;28;20509;-61
2023/06/19 05:11:41;;;;;;;3.10;1.33;;;;;;;27.59;43.46;100896.09;4955620;28;20118;-61
2023/06/19 05:14:06;;;;;;;2.85;1.58;;;;;;;27.60;43.21;100899.69;4955481;28;20125;-62
2023/06/19 05:16:33;;;;;;;1.85;1.10;;;;;;;27.62;43.33;100897.50;4955572;28;20023;-62
2023/06/19 05:18:59;;;;;;;1.80;1.33;;;;;;;27.68;43.05;100899.31;4955728;28;20035;-62
2023/06/19 05:21:24;;;;;;;2.42;1.40;;;;;;;27.74;43.36;100890.94;4957156;28;20407;-63
2023/06/19 05:23:50;;;;;;;4.50;1.63;;;;;;;27.80;43.70;100899.31;4955541;28;20046;-63
2023/06/19 05:26:22;;;;;;;4.22;1.30;;;;;;;27.79;43.25;100898.47;4956804;28;20113;-62
2023/06/19 05:28:48;;;;;;;4.43;2.15;;;;;;;27.87;42.66;100900.84;4952503;28;20510;-62
2023/06/19 05:31:14;;;;;;;3.58;1.05;;;;;;;27.93;42.75;100905.41;4939475;28;20051;-62
2023/06/19 05:33:40;;;;;;;2.33;1.30;;;;;;;27.91;42.62;100907.56;4956688;28;20202;-62
2023/06/19 05:36:06;;;;;;;5.25;1.95;;;;;;;27.92;42.83;100903.72;4955716;28;20075;-61
2023/06/19 05:38:31;;;;;;;4.80;1.83;;;;;;;27.90;42.94;100907.81;4955343;28;20505;-62
2023/06/19 05:40:57;;;;;;;4.57;1.77;;;;;;;27.90;43.66;100905.88;4956863;28;20082;-62
2023/06/19 05:43:24;;;;;;;2.33;1.58;;;;;;;27.89;43.68;100920.72;4957483;28;20023;-62
2023/06/19 05:45:50;;;;;;;2.60;1.63;;;;;;;27.88;43.82;100921.81;4956822;28;20037;-62
2023/06/19 05:48:15;;;;;;;6.72;1.52;;;;;;;27.87;44.12;100928.41;4971868;28;20395;-61
2023/06/19 05:50:41;;;;;;;4.32;1.65;;;;;;;27.85;43.17;100918.72;4956308;28;20039;-61
2023/06/19 05:53:06;;;;;;;4.95;1.67;;;;;;;27.81;42.99;100917.50;4956658;29;20051;-62
2023/06/19 05:55:31;;;;;;;6.00;1.85;;;;;;;27.77;43.93;100922.66;4955686;28;20042;-61
2023/06/19 05:57:57;;;;;;;2.88;1.98;;;;;;;27.81;43.46;100926.59;4955762;28;20036;-63
2023/06/19 06:00:23;;;;;;;2.00;1.63;;;;;;;27.81;44.09;100914.75;4956417;28;20031;-62
2023/06/19 06:02:51;;;;;;;3.33;1.73;;;;;;;27.86;43.37;100926.75;4955824;28;20391;-61
2023/06/19 06:05:18;;;;;;;5.35;1.77;;;;;;;27.85;43.57;100929.72;4955409;28;20078;-62
2023/06/19 06:07:44;;;;;;;3.50;1.73;;;;;;;27.84;44.15;100926.13;4939092;28;20035;-61
2023/06/19 06:10:10;;;;;;;2.35;1.88;;;;;;;27.87;43.91;100936.66;4954936;28;20099;-62
2023/06/19 06:12:35;;;;;;;2.55;1.75;;;;;;;27.89;44.55;100953.78;4938723;28;20091;-62
2023/06/19 06:15:05;;;;;;;4.10;2.13;;;;;;;27.90;44.27;100949.94;4951114;28;20568;-61
2023/06/19 06:17:30;;;;;;;3.60;1.83;;;;;;;27.86;43.59;100959.78;4941273;28;20039;-62
2023/06/19 06:19:56;;;;;;;3.45;1.45;;;;;;;27.85;44.33;100958.09;4954422;28;20038;-61
2023/06/19 06:22:21;;;;;;;3.05;2.10;;;;;;;27.91;44.41;100964.56;4954678;28;20031;-61
2023/06/19 06:24:47;;;;;;;2.85;1.48;;;;;;;27.96;43.62;100962.78;4954611;28;20462;-62
2023/06/19 06:27:13;;;;;;;6.22;2.00;;;;;;;28.03;43.45;100968.22;4954390;28;20114;-62
2023/06/19 06:29:38;;;;;;;4.35;1.85;;;;;;;28.19;43.84;100971.06;4954424;28;20040;-62
2023/06/19 06:32:05;;;;;;;2.42;1.92;;;;;;;28.48;43.85;100960.09;4955344;28;20525;-61
2023/06/19 06:34:32;;;;;;;2.38;1.88;;;;;;;28.72;43.48;100975.53;4938470;28;20498;-62
2023/06/19 06:36:57;;;;;;;2.47;2.00;;;;;;;28.88;43.10;100967.31;4954462;28;20054;-61
2023/06/19 06:39:23;;;;;;;3.83;2.05;;;;;;;29.03;43.07;100972.28;4954125;28;20031;-61
2023/06/19 06:41:48;;;;;;;3.00;1.73;;;;;;;29.19;43.03;100971.50;4935283;28;20036;-61
2023/06/19 06:44:13;;;;;;;2.72;1.63;;;;;;;29.29;42.17;100971.69;4942712;28;20111;-62
2023/06/19 06:46:39;;;;;;;5.93;1.92;;;;;;;29.51;41.87;100973.75;4955094;28;20035;-61
2023/06/19 06:49:04;;;;;;;3.92;1.77;;;;;;;29.58;41.84;100980.78;4950465;28;20027;-61
2023/06/19 06:51:29;;;;;;;2.13;1.70;;;;;;;29.76;41.89;100987.97;4941131;29;20031;-61
2023/06/19 06:53:55;;;;;;;3.20;2.00;;;;;;;30.05;41.75;100975.75;4953930;29;20101;-62
2023/06/19 06:56:20;;;;;;;2.40;1.65;;;;;;;30.24;40.74;100985.41;4953589;28;20522;-61
2023/06/19 06:58:48;;;;;;;6.07;2.97;;;;;;;30.45;41.22;100992.97;4954769;28;20183;-62
2023/06/19 07:01:13;;;;;;;2.63;1.58;;;;;;;30.55;40.57;100984.78;4953730;28;20039;-61
2023/06/19 07:03:39;;;;;;;2.92;1.60;;;;;;;30.71;40.34;100985.81;4953886;29;20122;-61
2023/06/19 07:06:05;;;;;;;2.78;1.05;;;;;;;31.01;39.79;100993.69;4953807;28;20494;-61
2023/06/19 07:08:30;;;;;;;2.00;1.60;;;;;;;31.24;39.80;100990.59;4953610;28;20047;-62
2023/06/19 07:10:55;;;;;;;2.22;1.90;;;;;;;31.44;39.38;100996.31;4937662;29;20126;-62
2023/06/19 07:13:21;;;;;;;3.00;1.33;;;;;;;31.57;39.27;100995.94;4955043;28;20024;-62
2023/06/19 07:15:46;;;;;;;2.88;1.60;;;;;;;31.75;38.68;100999.38;4937579;29;20087;-62
2023/06/19 07:18:11;;;;;;;1.17;1.00;;;;;;;31.97;38.30;100995.41;4953754;28;20473;-62
2023/06/19 07:20:37;;;;;;;6.55;1.70;;;;;;;32.14;38.80;100995.28;4937924;29;20043;-62
2023/06/19 07:23:02;;;;;;;1.95;1.38;;;;;;;32.42;37.93;100989.34;4953617;29;20546;-63
2023/06/19 07:25:27;;;;;;;2.70;1.38;;;;;;;32.69;37.62;100994.78;4934593;29;20047;-62
2023/06/19 07:27:53;;;;;;;1.70;1.60;;;;;;;32.82;37.42;100994.28;4942992;29;20106;-63
2023/06/19 07:30:18;;;;;;;4.55;2.00;;;;;;;33.11;37.23;100995.50;4937889;28;20039;-62
2023/06/19 07:32:44;;;;;;;3.17;1.60;;;;;;;33.33;36.20;100992.50;4953474;29;20040;-62
2023/06/19 07:35:11;;;;;;;5.07;1.63;;;;;;;33.54;35.58;100987.78;4953369;29;20031;-63
2023/06/19 07:37:36;;;;;;;6.05;1.92;;;;;;;33.67;36.00;100999.22;4954666;28;20065;-63
2023/06/19 07:40:02;;;;;;;2.40;1.60;;;;;;;33.72;35.96;100993.69;4954782;28;20031;-63
2023/06/19 07:42:27;;;;;;;3.40;1.70;;;;;;;33.72;35.66;100990.06;4953390;29;20035;-62
2023/06/19 07:44:52;;;;;;;2.95;1.88;;;;;;;33.91;35.43;100991.16;4953488;29;20035;-62
2023/06/19 07:47:18;;;;;;;3.97;2.55;;;;;;;33.94;34.75;100997.00;4954546;28;20038;-62
2023/06/19 07:49:44;;;;;;;5.95;2.15;;;;;;;34.02;34.69;100994.75;4953522;29;20043;-62
2023/06/19 07:52:10;;;;;;;3.22;2.10;;;;;;;34.16;34.04;101002.28;4954778;28;20046;-62
2023/06/19 07:54:35;;;;;;;1.98;1.65;;;;;;;34.20;34.30;101008.13;4954733;28;20031;-63
2023/06/19 07:57:01;;;;;;;5.05;2.10;;;;;;;34.28;33.88;101010.34;4953396;28;20067;-63
2023/06/19 07:59:26;;;;;;;2.50;1.90;;;;;;;34.35;33.90;101016.41;4954693;28;20387;-62
2023/06/19 08:01:52;;;;;;;2.13;1.80;;;;;;;34.20;33.61;101016.47;4953584;28;20388;-62
2023/06/19 08:04:17;;;;;;;4.28;2.35;;;;;;;34.03;34.34;101018.69;4953341;28;20051;-63
2023/06/19 08:06:42;;;;;;;1.83;1.65;;;;;;;33.85;34.04;101018.13;4954851;28;20110;-63
2023/06/19 08:09:08;;;;;;;3.47;2.00;;;;;;;33.70;33.45;101017.28;4937306;28;20043;-62
2023/06/19 08:11:33;;;;;;;4.22;2.00;;;;;;;33.61;33.83;101021.75;4952874;28;20035;-62
2023/06/19 08:13:59;;;;;;;2.85;1.98;;;;;;;33.58;34.01;101028.69;4954254;28;20046;-63
2023/06/19 08:16:25;;;;;;;4.55;2.00;;;;;;;33.57;33.83;101032.56;4953280;28;20034;-62
2023/06/19 08:18:50;;;;;;;4.40;2.50;;;;;;;33.70;34.25;101032.03;4952915;28;20047;-62
2023/06/19 08:21:16;;;;;;;7.55;2.20;;;;;;;33.80;33.00;101020.09;4957433;28;20395;-62
2023/06/19 08:23:43;;;;;;;6.90;2.42;;;;;;;33.89;33.38;101030.34;4957143;28;20086;-62
2023/06/19 08:26:09;;;;;;;3.50;2.15;;;;;;;34.14;33.68;101031.50;4957997;28;20035;-63
2023/06/19 08:28:34;;;;;;;8.35;2.22;;;;;;;34.43;32.53;101025.03;4972924;28;20038;-63
2023/06/19 08:31:00;;;;;;;4.28;2.17;;;;;;;34.49;33.01;101017.50;4956629;28;20046;-63
2023/06/19 08:33:25;;;;;;;7.30;3.17;;;;;;;34.39;33.41;101029.50;4956610;28;20043;-62
2023/06/19 08:35:51;;;;;;;4.35;2.28;;;;;;;34.41;32.81;101026.44;4956564;28;20039;-62
2023/06/19 08:38:16;;;;;;;4.55;2.20;;;;;;;34.74;31.90;101024.94;4956400;28;20098;-62
2023/06/19 08:40:43;;;;;;;4.13;2.45;;;;;;;34.98;31.78;101026.78;4939572;28;20388;-63
2023/06/19 08:43:09;;;;;;;2.75;2.15;;;;;;;35.07;32.02;101030.69;4972427;28;20031;-62
2023/06/19 08:45:35;;;;;;;5.43;2.08;;;;;;;35.45;31.21;101025.44;4937109;28;20145;-63
2023/06/19 08:48:03;;;;;;;4.65;2.40;;;;;;;35.67;31.13;101028.66;4980109;28;20554;-62
2023/06/19 08:50:30;;;;;;;3.58;2.25;;;;;;;35.74;31.75;101023.56;4937268;28;20039;-62
2023/06/19 08:52:56;;;;;;;5.90;2.33;;;;;;;35.90;30.86;101029.84;4948360;28;20043;-63
2023/06/19 08:55:21;;;;;;;3.08;2.60;;;;;;;36.10;30.80;101024.94;4939828;28;20046;-62
2023/06/19 08:57:49;;;;;;;4.53;2.85;;;;;;;36.28;30.55;101033.69;4937275;29;20067;-63
2023/06/19 09:00:26;;;;;;;2.28;2.03;;;;;;;36.02;30.49;101035.88;4937107;29;20460;-62
2023/06/19 09:02:52;;;;;;;4.82;2.20;;;;;;;35.79;30.46;101042.22;4952957;28;20038;-62
2023/06/19 09:05:18;;;;;;;3.45;1.95;;;;;;;35.75;31.08;101044.75;4937092;29;20059;-62
2023/06/19 09:07:54;;;;;;;2.60;1.95;;;;;;;35.84;30.39;101047.75;4937946;28;20119;-63
2023/06/19 09:10:19;;;;;;;4.10;1.98;;;;;;;35.91;30.10;101051.88;4935854;29;20462;-63
2023/06/19 09:13:02;;;;;;;2.55;1.90;;;;;;;36.47;29.81;101059.72;4933549;28;20127;-63
2023/06/19 09:15:30;;;;;;;5.07;2.17;;;;;;;36.77;29.33;101059.41;4935157;29;20635;-63
2023/06/19 09:18:06;;;;;;;2.40;2.10;;;;;;;37.02;29.35;101064.72;4952603;28;20035;-61
2023/06/19 09:20:38;;;;;;;2.10;1.90;;;;;;;37.16;29.17;101059.25;4920856;28;20810;-61
2023/06/19 09:23:04;;;;;;;4.25;2.13;;;;;;;37.28;29.02;101054.84;4952494;28;20114;-62
2023/06/19 09:25:29;;;;;;;2.88;2.03;;;;;;;37.40;28.79;101045.19;4936437;28;20504;-63
2023/06/19 09:27:55;;;;;;;2.15;1.92;;;;;;;37.60;29.00;101044.91;4936467;28;20128;-63
2023/06/19 09:30:21;;;;;;;4.10;1.92;;;;;;;37.72;28.74;101031.28;4952178;28;20490;-63
2023/06/19 09:32:46;;;;;;;2.63;2.05;;;;;;;37.88;28.18;101035.53;4937529;29;20040;-61
2023/06/19 09:35:11;;;;;;;3.20;2.13;;;;;;;38.02;28.09;101035.56;4920647;28;20403;-62
2023/06/19 09:37:39;;;;;;;3.22;2.20;;;;;;;38.26;28.18;101044.63;4920275;28;20020;-63
2023/06/19 09:40:12;;;;;;;3.08;2.05;;;;;;;38.47;27.65;101047.94;4936066;28;20554;-62
2023/06/19 09:42:39;;;;;;;5.85;2.20;;;;;;;38.74;27.26;101048.75;4936188;28;20032;-61
2023/06/19 09:45:07;;;;;;;5.72;2.42;;;;;;;38.90;27.03;101047.31;4936856;29;20035;-62
2023/06/19 09:47:32;;;;;;;5.57;2.70;;;;;;;39.08;27.80;101045.56;4936420;29;20488;-61
2023/06/19 09:49:59;;;;;;;4.40;2.53;;;;;;;38.99;27.00;101044.63;4937169;28;20091;-62
2023/06/19 09:52:24;;;;;;;3.03;2.08;;;;;;;38.93;27.37;101045.88;4936048;29;20091;-61
2023/06/19 09:54:51;;;;;;;4.00;2.60;;;;;;;39.11;26.86;101047.72;4950290;28;20035;-61
2023/06/19 09:57:18;;;;;;;2.55;2.25;;;;;;;39.27;26.04;101053.84;4954927;28;20042;-61
2023/06/19 09:59:49;;;;;;;3.08;2.35;;;;;;;39.55;26.69;101047.00;4970813;28;20027;-62
2023/06/19 10:02:17;;;;;;;7.57;6.95;;;;;;;39.92;26.37;101045.84;4956118;28;20050;-62
2023/06/19 10:04:53;;;;;;;93.60;89.43;;;;;;;40.44;25.62;101052.59;4955154;28;20054;-63
2023/06/19 10:07:20;;;;;;;62.65;59.83;;;;;;;41.19;24.88;101058.03;4955427;28;20070;-61
2023/06/19 10:10:12;;;;;;;11.20;10.40;;;;;;;42.17;24.34;101055.44;4953689;28;20031;-61
2023/06/19 10:12:40;;;;;;;7.50;3.03;;;;;;;43.20;23.11;101049.34;4955763;28;20043;-60
2023/06/19 10:15:09;;;;;;;6.20;2.90;;;;;;;43.74;22.69;101041.81;4954392;28;20059;-61
2023/06/19 10:17:34;;;;;;;3.78;2.40;;;;;;;43.28;23.12;101043.63;4955907;28;20039;-61
2023/06/19 10:20:00;;;;;;;4.53;2.70;;;;;;;42.67;23.41;101036.69;4960814;28;20042;-61
2023/06/19 10:22:31;;;;;;;4.75;2.22;;;;;;;41.99;23.71;101042.53;4942650;28;20058;-61
2023/06/19 10:24:57;;;;;;;4.55;2.78;;;;;;;41.65;24.00;101044.19;4954461;28;20066;-61
2023/06/19 10:27:23;;;;;;;4.18;2.70;;;;;;;41.64;24.20;101048.16;4954444;28;20059;-60
2023/06/19 10:29:53;;;;;;;3.17;2.75;;;;;;;41.79;23.68;101041.25;4954483;28;20035;-61
2023/06/19 10:32:19;;;;;;;2.85;2.33;;;;;;;41.99;23.81;101043.31;4954568;28;20044;-60
2023/06/19 10:34:51;;;;;;;5.75;2.70;;;;;;;41.86;24.05;101044.34;4954504;28;20086;-62
2023/06/19 10:37:16;;;;;;;5.78;2.25;;;;;;;41.70;24.04;101049.66;4954269;28;20069;-62
2023/06/19 10:39:42;;;;;;;8.30;2.42;;;;;;;41.52;23.62;101041.53;4954318;28;20038;-61
2023/06/19 10:42:09;;;;;;;5.00;2.30;;;;;;;41.18;24.49;101048.75;4934541;28;20028;-61
2023/06/19 10:44:35;;;;;;;3.58;3.28;;;;;;;40.87;24.14;101038.75;4951340;28;20179;-61
2023/06/19 10:47:01;;;;;;;3.20;2.20;;;;;;;40.80;24.30;101044.84;4955285;28;20122;-61
2023/06/19 10:49:26;;;;;;;4.60;2.92;;;;;;;40.72;24.36;101050.44;4946697;28;20470;-61
2023/06/19 10:51:57;;;;;;;4.07;2.55;;;;;;;40.61;24.06;101036.69;4935374;29;20092;-61
2023/06/19 10:54:22;;;;;;;8.40;7.72;;;;;;;40.58;24.03;101042.94;4935350;28;20430;-60
2023/06/19 10:56:48;;;;;;;3.75;2.45;;;;;;;40.48;24.39;101037.56;4936658;28;20036;-61
2023/06/19 10:59:14;;;;;;;5.97;3.03;;;;;;;40.57;24.53;101032.84;4935813;29;20047;-61
2023/06/19 11:01:45;;;;;;;3.25;2.60;;;;;;;40.68;23.55;101044.63;4934678;29;20032;-62
2023/06/19 11:04:11;;;;;;;4.78;2.78;;;;;;;40.63;23.87;101044.78;4950663;28;20178;-61
2023/06/19 11:06:38;;;;;;;3.30;2.50;;;;;;;40.56;24.02;101045.28;4934780;29;20408;-61
2023/06/19 11:09:05;;;;;;;2.33;1.92;;;;;;;40.42;23.46;101044.50;4934856;29;20039;-62
2023/06/19 11:11:45;;;;;;;4.90;2.60;;;;;;;40.67;23.78;101041.00;4950851;28;20110;-62
2023/06/19 11:14:14;;;;;;;2.92;2.40;;;;;;;40.55;23.88;101031.53;4950218;29;20131;-62
2023/06/19 11:16:42;;;;;;;4.95;2.60;;;;;;;40.47;24.14;101029.47;4934646;28;20058;-61
2023/06/19 11:19:09;;;;;;;5.18;2.67;;;;;;;40.36;23.73;101020.53;4950512;28;20103;-61
2023/06/19 11:21:39;;;;;;;3.60;2.50;;;;;;;40.37;24.17;101019.34;4918703;28;20051;-61